地図

経路データ

SID SEASON NUMBER BASIN SUBBASIN NAME ISO_TIME NATURE LAT LON WMO_WIND WMO_PRES WMO_AGENCY TRACK_TYPE DIST2LAND LANDFALL IFLAG USA_AGENCY USA_ATCF_ID USA_LAT USA_LON USA_RECORD USA_STATUS USA_WIND USA_PRES USA_SSHS USA_R34_NE USA_R34_SE USA_R34_SW USA_R34_NW USA_R50_NE USA_R50_SE USA_R50_SW USA_R50_NW USA_R64_NE USA_R64_SE USA_R64_SW USA_R64_NW USA_POCI USA_ROCI USA_RMW USA_EYE TOKYO_LAT TOKYO_LON TOKYO_GRADE TOKYO_WIND TOKYO_PRES TOKYO_R50_DIR TOKYO_R50_LONG TOKYO_R50_SHORT TOKYO_R30_DIR TOKYO_R30_LONG TOKYO_R30_SHORT TOKYO_LAND CMA_LAT CMA_LON CMA_CAT CMA_WIND CMA_PRES HKO_LAT HKO_LON HKO_CAT HKO_WIND HKO_PRES NEWDELHI_LAT NEWDELHI_LON NEWDELHI_GRADE NEWDELHI_WIND NEWDELHI_PRES NEWDELHI_CI NEWDELHI_DP NEWDELHI_POCI REUNION_LAT REUNION_LON REUNION_TYPE REUNION_WIND REUNION_PRES REUNION_TNUM REUNION_CI REUNION_RMW REUNION_R34_NE REUNION_R34_SE REUNION_R34_SW REUNION_R34_NW REUNION_R50_NE REUNION_R50_SE REUNION_R50_SW REUNION_R50_NW REUNION_R64_NE REUNION_R64_SE REUNION_R64_SW REUNION_R64_NW BOM_LAT BOM_LON BOM_TYPE BOM_WIND BOM_PRES BOM_TNUM BOM_CI BOM_RMW BOM_R34_NE BOM_R34_SE BOM_R34_SW BOM_R34_NW BOM_R50_NE BOM_R50_SE BOM_R50_SW BOM_R50_NW BOM_R64_NE BOM_R64_SE BOM_R64_SW BOM_R64_NW BOM_ROCI BOM_POCI BOM_EYE BOM_POS_METHOD BOM_PRES_METHOD NADI_LAT NADI_LON NADI_CAT NADI_WIND NADI_PRES WELLINGTON_LAT WELLINGTON_LON WELLINGTON_WIND WELLINGTON_PRES DS824_LAT DS824_LON DS824_STAGE DS824_WIND DS824_PRES TD9636_LAT TD9636_LON TD9636_STAGE TD9636_WIND TD9636_PRES TD9635_LAT TD9635_LON TD9635_WIND TD9635_PRES TD9635_ROCI NEUMANN_LAT NEUMANN_LON NEUMANN_CLASS NEUMANN_WIND NEUMANN_PRES MLC_LAT MLC_LON MLC_CLASS MLC_WIND MLC_PRES USA_GUST BOM_GUST BOM_GUST_PER REUNION_GUST REUNION_GUST_PER USA_SEAHGT USA_SEARAD_NE USA_SEARAD_SE USA_SEARAD_SW USA_SEARAD_NW STORM_SPEED STORM_DIR
2020298N13131 2020 38 WP MM MOLAVE 2020-10-24 00:00:00 NR 12.5000 131.200 PROVISIONAL 611 559 O_____________ tcvitals WP212020 12.5000 131.200 29 1000 -1 1006 225 40 16 303
2020298N13131 2020 38 WP MM MOLAVE 2020-10-24 03:00:00 NR 12.9280 130.518 PROVISIONAL 548 490 P_____________ WP212020 12.9280 130.518 29 1000 -1 1006 202 40 15 299
2020298N13131 2020 38 WP MM MOLAVE 2020-10-24 06:00:00 NR 13.2000 129.900 PROVISIONAL 490 437 O_____________ tcvitals WP212020 13.2000 129.900 29 1000 -1 1006 180 40 11 285
2020298N13131 2020 38 WP MM MOLAVE 2020-10-24 09:00:00 NR 13.2297 129.384 PROVISIONAL 437 385 P_____________ WP212020 13.2297 129.384 29 1003 -1 1007 140 40 10 270
2020298N13131 2020 38 WP MM MOLAVE 2020-10-24 12:00:00 NR 13.2000 128.900 PROVISIONAL 385 337 O_____________ tcvitals WP212020 13.2000 128.900 29 1006 -1 1009 100 40 10 278
2020298N13131 2020 38 WP MM MOLAVE 2020-10-24 15:00:00 NR 13.3647 128.388 PROVISIONAL 342 288 P_____________ WP212020 13.3647 128.388 32 1004 -1 1008 130 40 11 286
2020298N13131 2020 38 WP MM MOLAVE 2020-10-24 18:00:00 NR 13.5000 127.800 PROVISIONAL 288 219 O_____________ tcvitals WP212020 13.5000 127.800 35 1003 0 60 60 80 100 1008 160 40 13 272
2020298N13131 2020 38 WP MM MOLAVE 2020-10-24 21:00:00 NR 13.4151 127.072 PROVISIONAL 219 148 P_____________ WP212020 13.4151 127.072 44 998 0 65 65 85 100 1008 155 30 15 262
2020298N13131 2020 38 WP MM MOLAVE 2020-10-25 00:00:00 NR 13.3000 126.300 PROVISIONAL 148 104 O_____________ tcvitals WP212020 13.3000 126.300 54 994 0 70 70 90 100 1008 150 20 14 266
2020298N13131 2020 38 WP MM MOLAVE 2020-10-25 03:00:00 NR 13.3269 125.630 PROVISIONAL 99 63 P_____________ WP212020 13.3269 125.630 57 991 0 65 62 90 110 1006 165 17 14 274
2020298N13131 2020 38 WP MM MOLAVE 2020-10-25 06:00:00 NR 13.4000 124.900 PROVISIONAL 63 0 O_____________ tcvitals WP212020 13.4000 124.900 60 988 0 60 55 90 120 1005 180 14 17 275
2020298N13131 2020 38 WP MM MOLAVE 2020-10-25 09:00:00 NR 13.4805 123.935 PROVISIONAL 22 0 P_____________ WP212020 13.4805 123.935 62 987 0 80 62 80 123 1006 182 14 19 273
2020298N13131 2020 38 WP MM MOLAVE 2020-10-25 12:00:00 NR 13.5000 123.000 PROVISIONAL 10 0 O_____________ tcvitals WP212020 13.5000 123.000 64 987 1 100 70 70 126 1007 185 14 15 265
2020298N13131 2020 38 WP MM MOLAVE 2020-10-25 15:00:00 NR 13.3491 122.385 PROVISIONAL 15 15 P_____________ WP212020 13.3491 122.385 69 983 1 120 87 82 138 1007 185 12 12 256
2020298N13131 2020 38 WP MM MOLAVE 2020-10-25 18:00:00 NR 13.2000 121.800 PROVISIONAL 39 0 O_____________ tcvitals WP212020 13.2000 121.800 74 980 1 140 105 95 150 1007 185 10 14 264
2020298N13131 2020 38 WP MM MOLAVE 2020-10-25 21:00:00 NR 13.2129 120.950 PROVISIONAL 0 0 P_____________ WP212020 13.2129 120.950 74 980 1 140 105 92 150 1007 185 10 17 273
2020298N13131 2020 38 WP MM MOLAVE 2020-10-26 00:00:00 NR 13.3000 120.100 PROVISIONAL 24 24 O_____________ tcvitals WP212020 13.3000 120.100 74 980 1 140 105 90 150 1007 185 10 15 278
2020298N13131 2020 38 WP MM MOLAVE 2020-10-26 03:00:00 NR 13.4221 119.463 PROVISIONAL 86 86 P_____________ WP212020 13.4221 119.463 77 976 1 155 115 100 132 1005 212 10 12 280
2020298N13131 2020 38 WP MM MOLAVE 2020-10-26 06:00:00 NR 13.5000 118.900 PROVISIONAL 151 151 O_____________ tcvitals WP212020 13.5000 118.900 80 973 1 170 126 110 115 1004 240 10 11 270
2020298N13131 2020 38 WP MM MOLAVE 2020-10-26 09:00:00 NR 13.4211 118.333 PROVISIONAL 216 216 P_____________ WP212020 13.4220 118.345 84 969 2 162 126 107 120 1004 245 10 12 260
2020298N13131 2020 38 WP MM MOLAVE 2020-10-26 12:00:00 NR 13.3000 117.700 PROVISIONAL 281 281 O_____________ tcvitals WP212020 13.3000 117.700 89 966 2 155 126 105 126 1005 250 10 14 262
2020298N13131 2020 38 WP MM MOLAVE 2020-10-26 15:00:00 NR 13.2351 116.892 PROVISIONAL 352 352 P_____________ WP212020 13.2280 116.800 89 967 2 152 123 92 158 1005 300 12 16 267
2020298N13131 2020 38 WP MM MOLAVE 2020-10-26 18:00:00 NR 13.2128 116.059 PROVISIONAL 423 423 O_____________ tcvitals WP212020 13.2000 115.900 89 968 2 150 120 80 190 1006 350 14 15 270
2020298N13131 2020 38 WP MM MOLAVE 2020-10-26 21:00:00 NR 13.2345 115.354 PROVISIONAL 489 489 P_____________ WP212020 13.2269 115.263 94 963 2 157 125 100 177 1005 290 14 13 274
2020298N13131 2020 38 WP MM MOLAVE 2020-10-27 00:00:00 NR 13.3000 114.700 PROVISIONAL 562 501 O_____________ tcvitals WP212020 13.3000 114.700 99 958 3 165 130 120 165 1005 230 14 13 276
2020298N13131 2020 38 WP MM MOLAVE 2020-10-27 03:00:00 NR 13.3763 114.053 PROVISIONAL 501 427 P_____________ WP212020 13.3773 114.065 104 954 3 145 130 110 172 1004 225 12 13 279
2020298N13131 2020 38 WP MM MOLAVE 2020-10-27 06:00:00 NR 13.5000 113.400 PROVISIONAL 427 357 O_____________ tcvitals WP212020 13.5000 113.400 109 950 3 126 130 100 180 1003 220 10 14 284
2020298N13131 2020 38 WP MM MOLAVE 2020-10-27 09:00:00 NR 13.7074 112.700 PROVISIONAL 357 291 P_____________ WP212020 13.7074 112.700 107 951 3 115 120 95 175 1003 215 10 14 286
2020298N13131 2020 38 WP MM MOLAVE 2020-10-27 12:00:00 NR 13.9000 112.000 PROVISIONAL 291 215 O_____________ tcvitals WP212020 13.9000 112.000 105 952 3 105 110 90 170 1003 210 10 14 279
2020298N13131 2020 38 WP MM MOLAVE 2020-10-27 15:00:00 NR 13.9125 111.312 PROVISIONAL 215 151 P_____________ WP212020 13.9125 111.312 102 954 3 152 132 112 185 1003 217 15 13 275
2020298N13131 2020 38 WP MM MOLAVE 2020-10-27 18:00:00 NR 14.0000 110.700 PROVISIONAL 151 116 O_____________ tcvitals WP212020 14.0000 110.700 99 956 3 200 155 135 200 1004 225 20 12 295
2020298N13131 2020 38 WP MM MOLAVE 2020-10-27 21:00:00 NR 14.4005 110.238 PROVISIONAL 112 78 P_____________ WP212020 14.4195 110.250 94 962 2 150 147 132 165 1005 225 20 13 316
2020298N13131 2020 38 WP MM MOLAVE 2020-10-28 00:00:00 NR 14.9000 109.800 PROVISIONAL 78 32 O_____________ tcvitals WP212020 14.9000 109.800 89 968 2 100 140 130 130 1006 225 20 13 309
2020298N13131 2020 38 WP MM MOLAVE 2020-10-28 03:00:00 NR 15.2107 109.200 PROVISIONAL 32 0 P_____________ WP212020 15.2107 109.200 79 971 1 115 125 90 110 1005 212 20 14 292
2020298N13131 2020 38 WP MM MOLAVE 2020-10-28 06:00:00 NR 15.4000 108.500 PROVISIONAL 0 O_____________ tcvitals WP212020 15.4000 108.500 70 974 1 130 110 50 90 1004 200 20 14 286

デジタル台風データ・検索

IBTrACS Databaseについて

本データベースは、米国NOAAが公開する1842年以降の世界の熱帯低気圧のベストトラックデータアーカイブInternational Best Track Archive for Climate Stewardship (IBTrACS)を、ウェブで閲覧しやすい形式に変換したものです。

最終更新日:2021-12-06